sensor_id;sensor_type;location;lat;lon;timestamp;P1;durP1;ratioP1;P2;durP2;ratioP2
47804;SDS011;33568;45.286;9.900;2023-08-31T00:02:15;2.30;;;1.60;;
47804;SDS011;33568;45.286;9.900;2023-08-31T00:04:41;4.50;;;1.50;;
47804;SDS011;33568;45.286;9.900;2023-08-31T00:07:08;3.35;;;2.20;;
47804;SDS011;33568;45.286;9.900;2023-08-31T00:09:34;4.97;;;2.03;;
47804;SDS011;33568;45.286;9.900;2023-08-31T00:12:01;2.22;;;1.58;;
47804;SDS011;33568;45.286;9.900;2023-08-31T00:14:28;3.03;;;1.50;;
47804;SDS011;33568;45.286;9.900;2023-08-31T00:16:55;8.70;;;1.90;;
47804;SDS011;33568;45.286;9.900;2023-08-31T00:19:23;3.80;;;1.80;;
47804;SDS011;33568;45.286;9.900;2023-08-31T00:21:50;3.60;;;1.85;;
47804;SDS011;33568;45.286;9.900;2023-08-31T00:24:17;3.03;;;1.70;;
47804;SDS011;33568;45.286;9.900;2023-08-31T00:26:43;5.75;;;2.70;;
47804;SDS011;33568;45.286;9.900;2023-08-31T00:29:10;4.15;;;1.73;;
47804;SDS011;33568;45.286;9.900;2023-08-31T00:31:38;6.60;;;2.38;;
47804;SDS011;33568;45.286;9.900;2023-08-31T00:34:05;8.43;;;1.95;;
47804;SDS011;33568;45.286;9.900;2023-08-31T00:36:32;4.32;;;1.92;;
47804;SDS011;33568;45.286;9.900;2023-08-31T00:39:03;3.92;;;1.58;;
47804;SDS011;33568;45.286;9.900;2023-08-31T00:41:48;1.42;;;1.30;;
47804;SDS011;33568;45.286;9.900;2023-08-31T00:44:16;2.58;;;1.90;;
47804;SDS011;33568;45.286;9.900;2023-08-31T00:46:42;3.10;;;2.10;;
47804;SDS011;33568;45.286;9.900;2023-08-31T00:49:28;4.60;;;1.88;;
47804;SDS011;33568;45.286;9.900;2023-08-31T00:51:56;2.47;;;1.65;;
47804;SDS011;33568;45.286;9.900;2023-08-31T00:54:23;3.90;;;1.85;;
47804;SDS011;33568;45.286;9.900;2023-08-31T00:56:53;4.63;;;2.38;;
47804;SDS011;33568;45.286;9.900;2023-08-31T01:02:30;3.00;;;1.83;;
47804;SDS011;33568;45.286;9.900;2023-08-31T01:05:08;2.65;;;1.55;;
47804;SDS011;33568;45.286;9.900;2023-08-31T01:10:21;5.97;;;1.60;;
47804;SDS011;33568;45.286;9.900;2023-08-31T01:15:46;4.05;;;1.80;;
47804;SDS011;33568;45.286;9.900;2023-08-31T01:18:20;1.95;;;1.30;;
47804;SDS011;33568;45.286;9.900;2023-08-31T01:23:31;15.73;;;3.15;;
47804;SDS011;33568;45.286;9.900;2023-08-31T01:26:40;7.20;;;1.95;;
47804;SDS011;33568;45.286;9.900;2023-08-31T01:29:08;3.83;;;1.30;;
47804;SDS011;33568;45.286;9.900;2023-08-31T01:31:53;2.30;;;1.40;;
47804;SDS011;33568;45.286;9.900;2023-08-31T01:34:20;3.05;;;1.70;;
47804;SDS011;33568;45.286;9.900;2023-08-31T01:36:47;2.28;;;1.75;;
47804;SDS011;33568;45.286;9.900;2023-08-31T01:42:17;2.65;;;1.60;;
47804;SDS011;33568;45.286;9.900;2023-08-31T01:44:44;2.33;;;1.60;;
47804;SDS011;33568;45.286;9.900;2023-08-31T01:47:14;2.67;;;1.40;;
47804;SDS011;33568;45.286;9.900;2023-08-31T01:49:44;3.85;;;1.50;;
47804;SDS011;33568;45.286;9.900;2023-08-31T01:52:11;3.65;;;2.20;;
47804;SDS011;33568;45.286;9.900;2023-08-31T01:54:37;5.60;;;2.08;;
47804;SDS011;33568;45.286;9.900;2023-08-31T01:57:05;3.75;;;1.95;;
47804;SDS011;33568;45.286;9.900;2023-08-31T01:59:33;5.88;;;2.80;;
47804;SDS011;33568;45.286;9.900;2023-08-31T02:02:01;2.35;;;1.85;;
47804;SDS011;33568;45.286;9.900;2023-08-31T02:04:46;3.75;;;2.20;;
47804;SDS011;33568;45.286;9.900;2023-08-31T02:07:12;2.80;;;1.90;;
47804;SDS011;33568;45.286;9.900;2023-08-31T02:09:39;6.13;;;2.30;;
47804;SDS011;33568;45.286;9.900;2023-08-31T02:12:06;2.30;;;1.70;;
47804;SDS011;33568;45.286;9.900;2023-08-31T02:17:21;2.00;;;1.73;;
47804;SDS011;33568;45.286;9.900;2023-08-31T02:19:47;4.00;;;2.40;;
47804;SDS011;33568;45.286;9.900;2023-08-31T02:22:14;9.77;;;3.03;;
47804;SDS011;33568;45.286;9.900;2023-08-31T02:24:41;3.47;;;2.10;;
47804;SDS011;33568;45.286;9.900;2023-08-31T02:27:07;2.08;;;1.85;;
47804;SDS011;33568;45.286;9.900;2023-08-31T02:29:34;5.90;;;2.10;;
47804;SDS011;33568;45.286;9.900;2023-08-31T02:32:19;2.53;;;1.95;;
47804;SDS011;33568;45.286;9.900;2023-08-31T02:34:46;5.15;;;2.05;;
47804;SDS011;33568;45.286;9.900;2023-08-31T02:37:12;7.63;;;1.85;;
47804;SDS011;33568;45.286;9.900;2023-08-31T02:39:39;4.22;;;1.80;;
47804;SDS011;33568;45.286;9.900;2023-08-31T02:42:06;5.97;;;2.03;;
47804;SDS011;33568;45.286;9.900;2023-08-31T02:44:33;5.35;;;1.92;;
47804;SDS011;33568;45.286;9.900;2023-08-31T02:47:00;3.65;;;2.22;;
47804;SDS011;33568;45.286;9.900;2023-08-31T02:49:27;3.03;;;1.52;;
47804;SDS011;33568;45.286;9.900;2023-08-31T02:51:55;3.92;;;2.08;;
47804;SDS011;33568;45.286;9.900;2023-08-31T02:54:22;3.88;;;2.00;;
47804;SDS011;33568;45.286;9.900;2023-08-31T02:56:48;3.40;;;1.65;;
47804;SDS011;33568;45.286;9.900;2023-08-31T02:59:16;2.92;;;1.90;;
47804;SDS011;33568;45.286;9.900;2023-08-31T03:02:02;3.03;;;1.63;;
47804;SDS011;33568;45.286;9.900;2023-08-31T03:04:47;3.50;;;2.35;;
47804;SDS011;33568;45.286;9.900;2023-08-31T03:07:34;5.05;;;1.90;;
47804;SDS011;33568;45.286;9.900;2023-08-31T03:10:00;2.88;;;1.90;;
47804;SDS011;33568;45.286;9.900;2023-08-31T03:12:28;7.60;;;2.00;;
47804;SDS011;33568;45.286;9.900;2023-08-31T03:14:55;3.63;;;1.77;;
47804;SDS011;33568;45.286;9.900;2023-08-31T03:17:22;3.05;;;2.00;;
47804;SDS011;33568;45.286;9.900;2023-08-31T03:19:49;10.18;;;2.47;;
47804;SDS011;33568;45.286;9.900;2023-08-31T03:22:19;3.50;;;1.65;;
47804;SDS011;33568;45.286;9.900;2023-08-31T03:24:45;3.78;;;1.60;;
47804;SDS011;33568;45.286;9.900;2023-08-31T03:27:30;3.42;;;2.17;;
47804;SDS011;33568;45.286;9.900;2023-08-31T03:29:57;3.70;;;2.20;;
47804;SDS011;33568;45.286;9.900;2023-08-31T03:32:23;3.28;;;2.00;;
47804;SDS011;33568;45.286;9.900;2023-08-31T03:34:50;3.22;;;1.80;;
47804;SDS011;33568;45.286;9.900;2023-08-31T03:37:16;4.93;;;2.03;;
47804;SDS011;33568;45.286;9.900;2023-08-31T03:39:43;4.18;;;2.47;;
47804;SDS011;33568;45.286;9.900;2023-08-31T03:42:09;3.45;;;2.03;;
47804;SDS011;33568;45.286;9.900;2023-08-31T03:44:36;4.95;;;2.55;;
47804;SDS011;33568;45.286;9.900;2023-08-31T03:47:03;4.68;;;2.10;;
47804;SDS011;33568;45.286;9.900;2023-08-31T03:49:30;4.25;;;2.05;;
47804;SDS011;33568;45.286;9.900;2023-08-31T03:51:57;6.63;;;2.78;;
47804;SDS011;33568;45.286;9.900;2023-08-31T03:54:24;6.38;;;2.33;;
47804;SDS011;33568;45.286;9.900;2023-08-31T03:56:51;3.08;;;1.90;;
47804;SDS011;33568;45.286;9.900;2023-08-31T03:59:18;3.08;;;2.45;;
47804;SDS011;33568;45.286;9.900;2023-08-31T04:02:03;5.05;;;2.28;;
47804;SDS011;33568;45.286;9.900;2023-08-31T04:04:30;6.32;;;2.63;;
47804;SDS011;33568;45.286;9.900;2023-08-31T04:06:57;3.33;;;1.80;;
47804;SDS011;33568;45.286;9.900;2023-08-31T04:12:09;4.80;;;2.35;;
47804;SDS011;33568;45.286;9.900;2023-08-31T04:14:35;3.67;;;2.22;;
47804;SDS011;33568;45.286;9.900;2023-08-31T04:17:02;4.88;;;2.20;;
47804;SDS011;33568;45.286;9.900;2023-08-31T04:19:30;7.40;;;2.25;;
47804;SDS011;33568;45.286;9.900;2023-08-31T04:21:57;4.95;;;2.17;;
47804;SDS011;33568;45.286;9.900;2023-08-31T04:24:23;2.25;;;2.00;;
47804;SDS011;33568;45.286;9.900;2023-08-31T04:26:50;3.70;;;2.00;;
47804;SDS011;33568;45.286;9.900;2023-08-31T04:29:17;4.38;;;2.17;;
47804;SDS011;33568;45.286;9.900;2023-08-31T04:31:43;4.43;;;2.38;;
47804;SDS011;33568;45.286;9.900;2023-08-31T04:34:09;4.63;;;2.20;;
47804;SDS011;33568;45.286;9.900;2023-08-31T04:36:36;3.58;;;1.80;;
47804;SDS011;33568;45.286;9.900;2023-08-31T04:39:02;4.07;;;2.30;;
47804;SDS011;33568;45.286;9.900;2023-08-31T04:41:48;5.82;;;2.42;;
47804;SDS011;33568;45.286;9.900;2023-08-31T04:44:14;4.75;;;2.42;;
47804;SDS011;33568;45.286;9.900;2023-08-31T04:46:40;6.35;;;3.03;;
47804;SDS011;33568;45.286;9.900;2023-08-31T04:49:26;5.03;;;2.45;;
47804;SDS011;33568;45.286;9.900;2023-08-31T04:54:37;9.05;;;3.10;;
47804;SDS011;33568;45.286;9.900;2023-08-31T04:57:04;6.72;;;2.67;;
47804;SDS011;33568;45.286;9.900;2023-08-31T04:59:33;6.00;;;2.70;;
47804;SDS011;33568;45.286;9.900;2023-08-31T05:01:59;5.28;;;2.65;;
47804;SDS011;33568;45.286;9.900;2023-08-31T05:04:25;3.15;;;2.58;;
47804;SDS011;33568;45.286;9.900;2023-08-31T05:06:54;6.28;;;3.25;;
47804;SDS011;33568;45.286;9.900;2023-08-31T05:09:39;13.38;;;3.25;;
47804;SDS011;33568;45.286;9.900;2023-08-31T05:12:05;9.45;;;3.20;;
47804;SDS011;33568;45.286;9.900;2023-08-31T05:14:33;7.82;;;2.95;;
47804;SDS011;33568;45.286;9.900;2023-08-31T05:17:18;5.53;;;3.40;;
47804;SDS011;33568;45.286;9.900;2023-08-31T05:19:45;6.22;;;3.50;;
47804;SDS011;33568;45.286;9.900;2023-08-31T05:22:13;5.25;;;3.40;;
47804;SDS011;33568;45.286;9.900;2023-08-31T05:24:40;4.75;;;3.15;;
47804;SDS011;33568;45.286;9.900;2023-08-31T05:27:25;8.63;;;3.42;;
47804;SDS011;33568;45.286;9.900;2023-08-31T05:30:10;7.00;;;3.40;;
47804;SDS011;33568;45.286;9.900;2023-08-31T05:32:37;9.32;;;3.20;;
47804;SDS011;33568;45.286;9.900;2023-08-31T05:35:23;10.18;;;3.60;;
47804;SDS011;33568;45.286;9.900;2023-08-31T05:37:49;6.32;;;3.60;;
47804;SDS011;33568;45.286;9.900;2023-08-31T05:40:16;5.95;;;3.65;;
47804;SDS011;33568;45.286;9.900;2023-08-31T05:43:02;11.95;;;5.03;;
47804;SDS011;33568;45.286;9.900;2023-08-31T05:45:47;9.13;;;3.90;;
47804;SDS011;33568;45.286;9.900;2023-08-31T05:51:18;13.65;;;5.40;;
47804;SDS011;33568;45.286;9.900;2023-08-31T05:53:44;5.30;;;3.45;;
47804;SDS011;33568;45.286;9.900;2023-08-31T05:56:11;7.85;;;4.20;;
47804;SDS011;33568;45.286;9.900;2023-08-31T05:58:56;9.77;;;5.30;;
47804;SDS011;33568;45.286;9.900;2023-08-31T06:01:22;8.48;;;5.32;;
47804;SDS011;33568;45.286;9.900;2023-08-31T06:06:34;13.23;;;5.50;;
47804;SDS011;33568;45.286;9.900;2023-08-31T06:09:00;8.13;;;5.38;;
47804;SDS011;33568;45.286;9.900;2023-08-31T06:11:27;13.18;;;6.55;;
47804;SDS011;33568;45.286;9.900;2023-08-31T06:13:54;10.27;;;6.43;;
47804;SDS011;33568;45.286;9.900;2023-08-31T06:16:20;11.52;;;6.18;;
47804;SDS011;33568;45.286;9.900;2023-08-31T06:18:46;11.70;;;6.07;;
47804;SDS011;33568;45.286;9.900;2023-08-31T06:21:13;7.72;;;4.78;;
47804;SDS011;33568;45.286;9.900;2023-08-31T06:23:39;8.35;;;5.53;;
47804;SDS011;33568;45.286;9.900;2023-08-31T06:26:06;9.23;;;4.70;;
47804;SDS011;33568;45.286;9.900;2023-08-31T06:28:32;7.30;;;5.03;;
47804;SDS011;33568;45.286;9.900;2023-08-31T06:30:59;8.30;;;4.35;;
47804;SDS011;33568;45.286;9.900;2023-08-31T06:33:25;5.30;;;4.53;;
47804;SDS011;33568;45.286;9.900;2023-08-31T06:35:52;9.93;;;5.63;;
47804;SDS011;33568;45.286;9.900;2023-08-31T06:38:19;7.53;;;5.47;;
47804;SDS011;33568;45.286;9.900;2023-08-31T06:40:46;7.95;;;5.03;;
47804;SDS011;33568;45.286;9.900;2023-08-31T06:43:13;6.07;;;4.53;;
47804;SDS011;33568;45.286;9.900;2023-08-31T06:45:39;6.65;;;4.50;;
47804;SDS011;33568;45.286;9.900;2023-08-31T06:50:51;14.55;;;4.85;;
47804;SDS011;33568;45.286;9.900;2023-08-31T06:53:17;9.95;;;5.07;;
47804;SDS011;33568;45.286;9.900;2023-08-31T06:55:44;7.10;;;4.45;;
47804;SDS011;33568;45.286;9.900;2023-08-31T07:01:14;6.03;;;4.75;;
47804;SDS011;33568;45.286;9.900;2023-08-31T07:03:41;5.78;;;3.90;;
47804;SDS011;33568;45.286;9.900;2023-08-31T07:06:07;6.10;;;4.22;;
47804;SDS011;33568;45.286;9.900;2023-08-31T07:08:34;4.47;;;4.07;;
47804;SDS011;33568;45.286;9.900;2023-08-31T07:11:20;8.00;;;4.82;;
47804;SDS011;33568;45.286;9.900;2023-08-31T07:14:06;5.97;;;4.10;;
47804;SDS011;33568;45.286;9.900;2023-08-31T07:16:32;4.50;;;4.10;;
47804;SDS011;33568;45.286;9.900;2023-08-31T07:18:59;6.65;;;4.55;;
47804;SDS011;33568;45.286;9.900;2023-08-31T07:21:25;4.47;;;4.07;;
47804;SDS011;33568;45.286;9.900;2023-08-31T07:23:52;6.95;;;5.05;;
47804;SDS011;33568;45.286;9.900;2023-08-31T07:26:20;6.05;;;4.10;;
47804;SDS011;33568;45.286;9.900;2023-08-31T07:28:47;6.40;;;4.90;;
47804;SDS011;33568;45.286;9.900;2023-08-31T07:31:13;9.18;;;4.75;;
47804;SDS011;33568;45.286;9.900;2023-08-31T07:33:41;5.30;;;4.80;;
47804;SDS011;33568;45.286;9.900;2023-08-31T07:36:07;5.50;;;4.07;;
47804;SDS011;33568;45.286;9.900;2023-08-31T07:38:34;6.43;;;4.72;;
47804;SDS011;33568;45.286;9.900;2023-08-31T07:41:00;5.25;;;4.60;;
47804;SDS011;33568;45.286;9.900;2023-08-31T07:43:27;5.80;;;4.65;;
47804;SDS011;33568;45.286;9.900;2023-08-31T07:45:54;4.68;;;3.60;;
47804;SDS011;33568;45.286;9.900;2023-08-31T07:48:20;7.63;;;4.18;;
47804;SDS011;33568;45.286;9.900;2023-08-31T07:50:47;7.32;;;5.20;;
47804;SDS011;33568;45.286;9.900;2023-08-31T07:53:14;6.10;;;4.60;;
47804;SDS011;33568;45.286;9.900;2023-08-31T07:56:00;6.93;;;4.30;;
47804;SDS011;33568;45.286;9.900;2023-08-31T07:58:26;7.63;;;4.20;;
47804;SDS011;33568;45.286;9.900;2023-08-31T08:00:53;6.82;;;4.75;;
47804;SDS011;33568;45.286;9.900;2023-08-31T08:03:21;4.95;;;4.00;;
47804;SDS011;33568;45.286;9.900;2023-08-31T08:06:06;6.65;;;4.05;;
47804;SDS011;33568;45.286;9.900;2023-08-31T08:08:32;5.95;;;3.95;;
47804;SDS011;33568;45.286;9.900;2023-08-31T08:10:59;7.70;;;4.53;;
47804;SDS011;33568;45.286;9.900;2023-08-31T08:13:43;5.25;;;4.32;;
47804;SDS011;33568;45.286;9.900;2023-08-31T08:16:10;8.85;;;4.40;;
47804;SDS011;33568;45.286;9.900;2023-08-31T08:18:36;15.18;;;4.00;;
47804;SDS011;33568;45.286;9.900;2023-08-31T08:21:03;8.20;;;4.93;;
47804;SDS011;33568;45.286;9.900;2023-08-31T08:23:29;7.43;;;4.03;;
47804;SDS011;33568;45.286;9.900;2023-08-31T08:25:56;6.55;;;3.83;;
47804;SDS011;33568;45.286;9.900;2023-08-31T08:28:41;111.00;;;16.80;;
47804;SDS011;33568;45.286;9.900;2023-08-31T08:31:07;14.60;;;5.80;;
47804;SDS011;33568;45.286;9.900;2023-08-31T08:33:33;10.70;;;4.32;;
47804;SDS011;33568;45.286;9.900;2023-08-31T08:36:00;8.25;;;3.33;;
47804;SDS011;33568;45.286;9.900;2023-08-31T08:38:45;5.05;;;2.97;;
47804;SDS011;33568;45.286;9.900;2023-08-31T08:41:30;9.05;;;3.55;;
47804;SDS011;33568;45.286;9.900;2023-08-31T08:44:17;7.03;;;3.25;;
47804;SDS011;33568;45.286;9.900;2023-08-31T08:46:47;5.75;;;2.47;;
47804;SDS011;33568;45.286;9.900;2023-08-31T08:49:33;5.70;;;2.80;;
47804;SDS011;33568;45.286;9.900;2023-08-31T08:52:02;7.18;;;3.25;;
47804;SDS011;33568;45.286;9.900;2023-08-31T08:54:28;5.22;;;3.00;;
47804;SDS011;33568;45.286;9.900;2023-08-31T08:56:56;7.03;;;3.00;;
47804;SDS011;33568;45.286;9.900;2023-08-31T08:59:23;5.05;;;3.03;;
47804;SDS011;33568;45.286;9.900;2023-08-31T09:01:50;6.57;;;3.10;;
47804;SDS011;33568;45.286;9.900;2023-08-31T09:04:35;9.93;;;4.10;;
47804;SDS011;33568;45.286;9.900;2023-08-31T09:07:21;6.90;;;3.38;;
47804;SDS011;33568;45.286;9.900;2023-08-31T09:10:06;5.18;;;3.22;;
47804;SDS011;33568;45.286;9.900;2023-08-31T09:12:35;5.30;;;4.15;;
47804;SDS011;33568;45.286;9.900;2023-08-31T09:15:20;3.88;;;3.28;;
47804;SDS011;33568;45.286;9.900;2023-08-31T09:17:47;8.70;;;3.67;;
47804;SDS011;33568;45.286;9.900;2023-08-31T09:20:13;6.50;;;3.42;;
47804;SDS011;33568;45.286;9.900;2023-08-31T09:22:43;5.55;;;3.67;;
47804;SDS011;33568;45.286;9.900;2023-08-31T09:25:10;6.03;;;3.38;;
47804;SDS011;33568;45.286;9.900;2023-08-31T09:27:37;4.97;;;3.13;;
47804;SDS011;33568;45.286;9.900;2023-08-31T09:30:05;7.78;;;3.83;;
47804;SDS011;33568;45.286;9.900;2023-08-31T09:32:32;6.07;;;3.92;;
47804;SDS011;33568;45.286;9.900;2023-08-31T09:34:59;9.90;;;3.47;;
47804;SDS011;33568;45.286;9.900;2023-08-31T09:37:29;6.22;;;3.50;;
47804;SDS011;33568;45.286;9.900;2023-08-31T09:39:57;8.07;;;2.88;;
47804;SDS011;33568;45.286;9.900;2023-08-31T09:42:38;5.70;;;2.90;;
47804;SDS011;33568;45.286;9.900;2023-08-31T09:45:30;7.07;;;3.05;;
47804;SDS011;33568;45.286;9.900;2023-08-31T09:48:01;5.85;;;2.70;;
47804;SDS011;33568;45.286;9.900;2023-08-31T09:50:30;6.90;;;2.97;;
47804;SDS011;33568;45.286;9.900;2023-08-31T09:53:00;6.78;;;2.15;;
47804;SDS011;33568;45.286;9.900;2023-08-31T09:55:48;9.65;;;2.60;;
47804;SDS011;33568;45.286;9.900;2023-08-31T09:58:17;9.48;;;3.03;;
47804;SDS011;33568;45.286;9.900;2023-08-31T10:01:02;5.30;;;2.72;;
47804;SDS011;33568;45.286;9.900;2023-08-31T10:03:50;5.35;;;2.58;;
47804;SDS011;33568;45.286;9.900;2023-08-31T10:06:35;3.42;;;2.10;;
47804;SDS011;33568;45.286;9.900;2023-08-31T10:09:04;5.07;;;2.38;;
47804;SDS011;33568;45.286;9.900;2023-08-31T10:11:31;5.38;;;2.45;;
47804;SDS011;33568;45.286;9.900;2023-08-31T10:13:59;6.72;;;2.83;;
47804;SDS011;33568;45.286;9.900;2023-08-31T10:16:26;4.65;;;3.00;;
47804;SDS011;33568;45.286;9.900;2023-08-31T10:18:55;4.43;;;2.60;;
47804;SDS011;33568;45.286;9.900;2023-08-31T10:21:22;4.60;;;2.42;;
47804;SDS011;33568;45.286;9.900;2023-08-31T10:26:34;13.63;;;2.95;;
47804;SDS011;33568;45.286;9.900;2023-08-31T10:29:01;7.20;;;3.72;;
47804;SDS011;33568;45.286;9.900;2023-08-31T10:31:29;5.30;;;2.83;;
47804;SDS011;33568;45.286;9.900;2023-08-31T10:34:04;5.00;;;2.88;;
47804;SDS011;33568;45.286;9.900;2023-08-31T10:39:12;8.70;;;3.20;;
47804;SDS011;33568;45.286;9.900;2023-08-31T10:41:39;5.07;;;2.72;;
47804;SDS011;33568;45.286;9.900;2023-08-31T10:44:19;7.10;;;3.47;;
47804;SDS011;33568;45.286;9.900;2023-08-31T10:47:05;5.25;;;3.10;;
47804;SDS011;33568;45.286;9.900;2023-08-31T10:49:34;6.00;;;3.28;;
47804;SDS011;33568;45.286;9.900;2023-08-31T10:54:51;9.52;;;3.20;;
47804;SDS011;33568;45.286;9.900;2023-08-31T10:57:29;9.30;;;3.10;;
47804;SDS011;33568;45.286;9.900;2023-08-31T10:59:57;6.37;;;3.00;;
47804;SDS011;33568;45.286;9.900;2023-08-31T11:02:43;6.78;;;3.35;;
47804;SDS011;33568;45.286;9.900;2023-08-31T11:05:14;7.63;;;2.97;;
47804;SDS011;33568;45.286;9.900;2023-08-31T11:07:50;9.38;;;3.20;;
47804;SDS011;33568;45.286;9.900;2023-08-31T11:10:22;7.38;;;2.85;;
47804;SDS011;33568;45.286;9.900;2023-08-31T11:12:53;5.10;;;3.10;;
47804;SDS011;33568;45.286;9.900;2023-08-31T11:15:56;4.78;;;2.60;;
47804;SDS011;33568;45.286;9.900;2023-08-31T11:18:23;4.40;;;2.80;;
47804;SDS011;33568;45.286;9.900;2023-08-31T11:20:50;3.92;;;2.60;;
47804;SDS011;33568;45.286;9.900;2023-08-31T11:23:17;6.30;;;2.97;;
47804;SDS011;33568;45.286;9.900;2023-08-31T11:25:44;6.35;;;3.25;;
47804;SDS011;33568;45.286;9.900;2023-08-31T11:28:32;8.27;;;3.33;;
47804;SDS011;33568;45.286;9.900;2023-08-31T11:30:59;5.95;;;3.70;;
47804;SDS011;33568;45.286;9.900;2023-08-31T11:33:30;5.13;;;3.20;;
47804;SDS011;33568;45.286;9.900;2023-08-31T11:36:17;4.70;;;2.75;;
47804;SDS011;33568;45.286;9.900;2023-08-31T11:38:43;4.97;;;2.80;;
47804;SDS011;33568;45.286;9.900;2023-08-31T11:41:11;8.55;;;3.28;;
47804;SDS011;33568;45.286;9.900;2023-08-31T11:43:38;8.38;;;3.00;;
47804;SDS011;33568;45.286;9.900;2023-08-31T11:46:04;7.78;;;3.00;;
47804;SDS011;33568;45.286;9.900;2023-08-31T11:48:49;5.32;;;2.60;;
47804;SDS011;33568;45.286;9.900;2023-08-31T11:51:16;4.28;;;2.53;;
47804;SDS011;33568;45.286;9.900;2023-08-31T11:53:44;6.90;;;2.97;;
47804;SDS011;33568;45.286;9.900;2023-08-31T11:56:11;7.13;;;2.50;;
47804;SDS011;33568;45.286;9.900;2023-08-31T11:58:41;14.43;;;2.72;;
47804;SDS011;33568;45.286;9.900;2023-08-31T12:01:30;3.35;;;2.00;;
47804;SDS011;33568;45.286;9.900;2023-08-31T12:03:57;7.18;;;2.65;;
47804;SDS011;33568;45.286;9.900;2023-08-31T12:06:23;7.20;;;3.03;;
47804;SDS011;33568;45.286;9.900;2023-08-31T12:08:50;3.50;;;2.30;;
47804;SDS011;33568;45.286;9.900;2023-08-31T12:11:35;6.55;;;2.85;;
47804;SDS011;33568;45.286;9.900;2023-08-31T12:14:24;7.20;;;2.53;;
47804;SDS011;33568;45.286;9.900;2023-08-31T12:16:52;4.32;;;2.70;;
47804;SDS011;33568;45.286;9.900;2023-08-31T12:19:26;5.93;;;2.50;;
47804;SDS011;33568;45.286;9.900;2023-08-31T12:22:13;6.20;;;2.60;;
47804;SDS011;33568;45.286;9.900;2023-08-31T12:24:40;7.63;;;2.70;;
47804;SDS011;33568;45.286;9.900;2023-08-31T12:27:10;10.82;;;2.78;;
47804;SDS011;33568;45.286;9.900;2023-08-31T12:29:36;7.63;;;2.60;;
47804;SDS011;33568;45.286;9.900;2023-08-31T12:32:22;11.23;;;2.47;;
47804;SDS011;33568;45.286;9.900;2023-08-31T12:34:48;4.65;;;2.33;;
47804;SDS011;33568;45.286;9.900;2023-08-31T12:37:14;7.68;;;2.50;;
47804;SDS011;33568;45.286;9.900;2023-08-31T12:39:41;7.88;;;2.63;;
47804;SDS011;33568;45.286;9.900;2023-08-31T12:42:10;4.95;;;2.70;;
47804;SDS011;33568;45.286;9.900;2023-08-31T12:44:37;5.75;;;2.13;;
47804;SDS011;33568;45.286;9.900;2023-08-31T12:47:03;8.38;;;2.17;;
47804;SDS011;33568;45.286;9.900;2023-08-31T12:49:49;5.22;;;2.83;;
47804;SDS011;33568;45.286;9.900;2023-08-31T12:52:15;6.38;;;2.63;;
47804;SDS011;33568;45.286;9.900;2023-08-31T12:54:42;7.63;;;2.83;;
47804;SDS011;33568;45.286;9.900;2023-08-31T12:57:08;8.20;;;2.88;;
47804;SDS011;33568;45.286;9.900;2023-08-31T12:59:35;6.75;;;2.15;;
47804;SDS011;33568;45.286;9.900;2023-08-31T13:02:39;4.95;;;2.17;;
47804;SDS011;33568;45.286;9.900;2023-08-31T13:05:06;2.97;;;1.85;;
47804;SDS011;33568;45.286;9.900;2023-08-31T13:07:37;4.28;;;2.10;;
47804;SDS011;33568;45.286;9.900;2023-08-31T13:10:22;3.70;;;2.10;;
47804;SDS011;33568;45.286;9.900;2023-08-31T13:12:49;3.58;;;2.00;;
47804;SDS011;33568;45.286;9.900;2023-08-31T13:18:01;7.05;;;2.05;;
47804;SDS011;33568;45.286;9.900;2023-08-31T13:20:27;7.50;;;1.90;;
47804;SDS011;33568;45.286;9.900;2023-08-31T13:22:54;6.50;;;2.10;;
47804;SDS011;33568;45.286;9.900;2023-08-31T13:25:20;4.47;;;1.92;;
47804;SDS011;33568;45.286;9.900;2023-08-31T13:28:05;5.07;;;1.90;;
47804;SDS011;33568;45.286;9.900;2023-08-31T13:30:32;5.00;;;2.22;;
47804;SDS011;33568;45.286;9.900;2023-08-31T13:35:45;10.63;;;2.33;;
47804;SDS011;33568;45.286;9.900;2023-08-31T13:38:12;5.55;;;1.88;;
47804;SDS011;33568;45.286;9.900;2023-08-31T13:40:39;5.60;;;2.03;;
47804;SDS011;33568;45.286;9.900;2023-08-31T13:43:06;5.50;;;1.95;;
47804;SDS011;33568;45.286;9.900;2023-08-31T13:45:32;6.90;;;2.22;;
47804;SDS011;33568;45.286;9.900;2023-08-31T13:48:18;5.05;;;1.80;;
47804;SDS011;33568;45.286;9.900;2023-08-31T13:51:03;6.53;;;2.13;;
47804;SDS011;33568;45.286;9.900;2023-08-31T13:53:30;6.15;;;1.77;;
47804;SDS011;33568;45.286;9.900;2023-08-31T13:55:57;3.65;;;1.75;;
47804;SDS011;33568;45.286;9.900;2023-08-31T13:58:23;4.35;;;2.20;;
47804;SDS011;33568;45.286;9.900;2023-08-31T14:00:50;5.68;;;2.03;;
47804;SDS011;33568;45.286;9.900;2023-08-31T14:03:16;6.00;;;1.88;;
47804;SDS011;33568;45.286;9.900;2023-08-31T14:08:29;5.47;;;1.70;;
47804;SDS011;33568;45.286;9.900;2023-08-31T14:10:56;3.95;;;2.03;;
47804;SDS011;33568;45.286;9.900;2023-08-31T14:16:09;7.18;;;2.05;;
47804;SDS011;33568;45.286;9.900;2023-08-31T14:18:54;5.68;;;2.40;;
47804;SDS011;33568;45.286;9.900;2023-08-31T14:21:20;7.00;;;2.10;;
47804;SDS011;33568;45.286;9.900;2023-08-31T14:23:47;6.00;;;2.13;;
47804;SDS011;33568;45.286;9.900;2023-08-31T14:26:14;5.65;;;2.17;;
47804;SDS011;33568;45.286;9.900;2023-08-31T14:28:40;6.28;;;2.13;;
47804;SDS011;33568;45.286;9.900;2023-08-31T14:31:08;7.65;;;2.20;;
47804;SDS011;33568;45.286;9.900;2023-08-31T14:33:53;6.03;;;2.05;;
47804;SDS011;33568;45.286;9.900;2023-08-31T14:36:21;6.88;;;1.92;;
47804;SDS011;33568;45.286;9.900;2023-08-31T14:38:48;4.85;;;2.35;;
47804;SDS011;33568;45.286;9.900;2023-08-31T14:41:14;3.85;;;2.15;;
47804;SDS011;33568;45.286;9.900;2023-08-31T14:43:41;5.22;;;2.13;;
47804;SDS011;33568;45.286;9.900;2023-08-31T14:48:53;6.85;;;2.17;;
47804;SDS011;33568;45.286;9.900;2023-08-31T14:51:21;4.75;;;2.00;;
47804;SDS011;33568;45.286;9.900;2023-08-31T14:53:47;6.00;;;2.00;;
47804;SDS011;33568;45.286;9.900;2023-08-31T14:56:14;4.80;;;2.20;;
47804;SDS011;33568;45.286;9.900;2023-08-31T14:58:40;5.43;;;2.22;;
47804;SDS011;33568;45.286;9.900;2023-08-31T15:01:07;33.80;;;9.25;;
47804;SDS011;33568;45.286;9.900;2023-08-31T15:03:34;7.47;;;2.38;;
47804;SDS011;33568;45.286;9.900;2023-08-31T15:06:00;18.85;;;6.72;;
47804;SDS011;33568;45.286;9.900;2023-08-31T15:08:37;7.35;;;3.38;;
47804;SDS011;33568;45.286;9.900;2023-08-31T15:11:04;7.50;;;2.50;;
47804;SDS011;33568;45.286;9.900;2023-08-31T15:13:31;5.95;;;2.33;;
47804;SDS011;33568;45.286;9.900;2023-08-31T15:16:16;6.35;;;2.20;;
47804;SDS011;33568;45.286;9.900;2023-08-31T15:21:47;8.38;;;1.98;;
47804;SDS011;33568;45.286;9.900;2023-08-31T15:24:13;6.43;;;2.30;;
47804;SDS011;33568;45.286;9.900;2023-08-31T15:26:40;5.60;;;1.98;;
47804;SDS011;33568;45.286;9.900;2023-08-31T15:29:08;5.63;;;1.60;;
47804;SDS011;33568;45.286;9.900;2023-08-31T15:31:35;5.78;;;1.92;;
47804;SDS011;33568;45.286;9.900;2023-08-31T15:34:01;5.25;;;2.10;;
47804;SDS011;33568;45.286;9.900;2023-08-31T15:36:29;5.65;;;2.08;;
47804;SDS011;33568;45.286;9.900;2023-08-31T15:38:56;4.97;;;1.92;;
47804;SDS011;33568;45.286;9.900;2023-08-31T15:41:22;2.92;;;1.85;;
47804;SDS011;33568;45.286;9.900;2023-08-31T15:44:07;6.10;;;1.83;;
47804;SDS011;33568;45.286;9.900;2023-08-31T15:46:34;3.72;;;1.92;;
47804;SDS011;33568;45.286;9.900;2023-08-31T15:49:00;8.13;;;2.20;;
47804;SDS011;33568;45.286;9.900;2023-08-31T15:51:27;4.07;;;2.03;;
47804;SDS011;33568;45.286;9.900;2023-08-31T15:53:54;5.25;;;1.77;;
47804;SDS011;33568;45.286;9.900;2023-08-31T15:56:40;9.07;;;2.40;;
47804;SDS011;33568;45.286;9.900;2023-08-31T15:59:06;4.38;;;1.73;;
47804;SDS011;33568;45.286;9.900;2023-08-31T16:01:33;4.05;;;2.03;;
47804;SDS011;33568;45.286;9.900;2023-08-31T16:04:18;4.22;;;1.60;;
47804;SDS011;33568;45.286;9.900;2023-08-31T16:09:51;11.35;;;2.25;;